sensor_id;sensor_type;location;lat;lon;timestamp;pressure;altitude;pressure_sealevel;temperature;humidity
58245;BME280;44550;43.864;25.986;2023-08-08T00:00:03;100771.88;;;20.73;96.58
58245;BME280;44550;43.864;25.986;2023-08-08T00:04:04;100767.25;;;20.78;96.28
58245;BME280;44550;43.864;25.986;2023-08-08T00:08:05;100762.13;;;20.74;96.80
58245;BME280;44550;43.864;25.986;2023-08-08T00:12:05;100760.94;;;20.56;97.89
58245;BME280;44550;43.864;25.986;2023-08-08T00:16:05;100759.13;;;20.58;97.40
58245;BME280;44550;43.864;25.986;2023-08-08T00:20:08;100779.50;;;20.57;98.50
58245;BME280;44550;43.864;25.986;2023-08-08T00:24:08;100788.28;;;20.59;99.52
58245;BME280;44550;43.864;25.986;2023-08-08T00:28:07;100793.50;;;20.62;99.70
58245;BME280;44550;43.864;25.986;2023-08-08T00:32:07;100788.72;;;20.46;100.00
58245;BME280;44550;43.864;25.986;2023-08-08T00:36:09;100788.97;;;20.38;100.00
58245;BME280;44550;43.864;25.986;2023-08-08T00:40:10;100812.63;;;20.46;100.00
58245;BME280;44550;43.864;25.986;2023-08-08T00:44:10;100807.47;;;20.41;100.00
58245;BME280;44550;43.864;25.986;2023-08-08T00:48:11;100801.31;;;20.39;100.00
58245;BME280;44550;43.864;25.986;2023-08-08T00:52:13;100799.88;;;20.30;100.00
58245;BME280;44550;43.864;25.986;2023-08-08T00:56:13;100789.25;;;20.30;100.00
58245;BME280;44550;43.864;25.986;2023-08-08T01:00:13;100786.41;;;20.08;100.00
58245;BME280;44550;43.864;25.986;2023-08-08T01:04:14;100776.81;;;20.04;100.00
58245;BME280;44550;43.864;25.986;2023-08-08T01:08:20;100773.66;;;19.91;100.00
58245;BME280;44550;43.864;25.986;2023-08-08T01:12:24;100732.66;;;19.74;100.00
58245;BME280;44550;43.864;25.986;2023-08-08T01:16:32;100800.53;;;19.81;100.00
58245;BME280;44550;43.864;25.986;2023-08-08T01:20:38;100816.53;;;19.78;100.00
58245;BME280;44550;43.864;25.986;2023-08-08T01:25:09;100815.03;;;19.69;100.00
58245;BME280;44550;43.864;25.986;2023-08-08T01:29:15;100799.19;;;19.35;100.00
58245;BME280;44550;43.864;25.986;2023-08-08T01:33:33;100827.09;;;19.48;100.00
58245;BME280;44550;43.864;25.986;2023-08-08T01:37:49;100812.78;;;19.22;100.00
58245;BME280;44550;43.864;25.986;2023-08-08T01:41:56;100860.72;;;19.47;100.00
58245;BME280;44550;43.864;25.986;2023-08-08T01:46:06;100868.53;;;19.21;100.00
58245;BME280;44550;43.864;25.986;2023-08-08T01:50:19;100869.56;;;19.14;100.00
58245;BME280;44550;43.864;25.986;2023-08-08T01:54:18;100876.72;;;19.10;100.00
58245;BME280;44550;43.864;25.986;2023-08-08T01:58:22;100869.94;;;19.00;100.00
58245;BME280;44550;43.864;25.986;2023-08-08T02:02:30;100881.53;;;18.96;100.00
58245;BME280;44550;43.864;25.986;2023-08-08T02:06:31;100913.56;;;18.87;100.00
58245;BME280;44550;43.864;25.986;2023-08-08T02:10:46;100900.66;;;18.73;100.00
58245;BME280;44550;43.864;25.986;2023-08-08T02:15:22;100895.31;;;18.74;100.00
58245;BME280;44550;43.864;25.986;2023-08-08T02:19:24;100887.25;;;18.79;100.00
58245;BME280;44550;43.864;25.986;2023-08-08T02:23:37;100887.81;;;18.92;100.00
58245;BME280;44550;43.864;25.986;2023-08-08T02:27:46;100890.41;;;18.93;100.00
58245;BME280;44550;43.864;25.986;2023-08-08T02:31:48;100894.56;;;19.05;100.00
58245;BME280;44550;43.864;25.986;2023-08-08T02:36:06;100902.53;;;19.04;100.00
58245;BME280;44550;43.864;25.986;2023-08-08T02:40:09;100879.75;;;18.96;100.00
58245;BME280;44550;43.864;25.986;2023-08-08T02:44:48;100889.81;;;19.18;100.00
58245;BME280;44550;43.864;25.986;2023-08-08T02:48:38;100879.44;;;19.09;100.00
58245;BME280;44550;43.864;25.986;2023-08-08T02:52:46;100886.69;;;19.00;100.00
58245;BME280;44550;43.864;25.986;2023-08-08T02:56:54;100896.59;;;18.94;100.00
58245;BME280;44550;43.864;25.986;2023-08-08T03:00:55;100897.22;;;19.04;100.00
58245;BME280;44550;43.864;25.986;2023-08-08T03:09:23;100886.13;;;18.52;100.00
58245;BME280;44550;43.864;25.986;2023-08-08T03:13:54;100877.31;;;18.51;100.00
58245;BME280;44550;43.864;25.986;2023-08-08T03:18:03;100877.66;;;18.36;100.00
58245;BME280;44550;43.864;25.986;2023-08-08T03:22:14;100910.22;;;18.40;100.00
58245;BME280;44550;43.864;25.986;2023-08-08T03:26:22;100896.97;;;18.41;100.00
58245;BME280;44550;43.864;25.986;2023-08-08T03:30:43;100919.44;;;18.61;100.00
58245;BME280;44550;43.864;25.986;2023-08-08T03:34:58;100924.84;;;18.56;100.00
58245;BME280;44550;43.864;25.986;2023-08-08T03:39:04;100915.69;;;18.32;100.00
58245;BME280;44550;43.864;25.986;2023-08-08T03:43:05;100923.97;;;18.17;100.00
58245;BME280;44550;43.864;25.986;2023-08-08T03:51:38;100952.31;;;18.12;100.00
58245;BME280;44550;43.864;25.986;2023-08-08T03:55:53;100920.31;;;17.82;100.00
58245;BME280;44550;43.864;25.986;2023-08-08T03:59:53;100913.41;;;17.72;100.00
58245;BME280;44550;43.864;25.986;2023-08-08T04:03:53;100963.03;;;18.05;100.00
58245;BME280;44550;43.864;25.986;2023-08-08T04:08:12;100971.16;;;17.96;100.00
58245;BME280;44550;43.864;25.986;2023-08-08T04:12:14;100972.69;;;18.06;100.00
58245;BME280;44550;43.864;25.986;2023-08-08T04:16:16;100946.53;;;17.91;100.00
58245;BME280;44550;43.864;25.986;2023-08-08T04:20:42;100990.28;;;18.09;100.00
58245;BME280;44550;43.864;25.986;2023-08-08T04:24:55;100973.56;;;18.07;100.00
58245;BME280;44550;43.864;25.986;2023-08-08T04:29:31;100983.16;;;18.13;100.00
58245;BME280;44550;43.864;25.986;2023-08-08T04:33:31;100989.44;;;18.08;100.00
58245;BME280;44550;43.864;25.986;2023-08-08T04:37:52;101000.25;;;17.96;100.00
58245;BME280;44550;43.864;25.986;2023-08-08T04:42:02;100986.22;;;17.93;100.00
58245;BME280;44550;43.864;25.986;2023-08-08T04:46:21;101002.94;;;17.93;100.00
58245;BME280;44550;43.864;25.986;2023-08-08T04:50:48;100967.03;;;17.81;100.00
58245;BME280;44550;43.864;25.986;2023-08-08T04:55:20;100995.53;;;18.11;100.00
58245;BME280;44550;43.864;25.986;2023-08-08T04:59:26;101003.31;;;18.20;100.00
58245;BME280;44550;43.864;25.986;2023-08-08T05:03:37;100991.69;;;18.27;100.00
58245;BME280;44550;43.864;25.986;2023-08-08T05:07:46;101027.50;;;18.45;100.00
58245;BME280;44550;43.864;25.986;2023-08-08T05:11:54;100987.78;;;18.03;100.00
58245;BME280;44550;43.864;25.986;2023-08-08T05:16:25;101036.72;;;18.25;100.00
58245;BME280;44550;43.864;25.986;2023-08-08T05:25:33;101046.88;;;18.47;100.00
58245;BME280;44550;43.864;25.986;2023-08-08T05:30:32;100998.81;;;18.25;100.00
58245;BME280;44550;43.864;25.986;2023-08-08T05:36:19;101021.59;;;18.30;100.00
58245;BME280;44550;43.864;25.986;2023-08-08T05:46:06;101043.06;;;18.17;100.00
58245;BME280;44550;43.864;25.986;2023-08-08T05:50:51;101057.22;;;18.14;100.00
58245;BME280;44550;43.864;25.986;2023-08-08T05:55:02;101066.88;;;18.17;100.00
58245;BME280;44550;43.864;25.986;2023-08-08T05:59:12;101062.44;;;18.19;100.00
58245;BME280;44550;43.864;25.986;2023-08-08T06:03:32;101027.16;;;17.72;100.00
58245;BME280;44550;43.864;25.986;2023-08-08T06:07:59;101026.06;;;17.85;100.00
58245;BME280;44550;43.864;25.986;2023-08-08T06:13:08;101088.38;;;18.00;100.00
58245;BME280;44550;43.864;25.986;2023-08-08T06:17:35;101095.53;;;17.95;100.00
58245;BME280;44550;43.864;25.986;2023-08-08T06:22:55;101081.41;;;17.96;100.00
58245;BME280;44550;43.864;25.986;2023-08-08T06:37:58;101128.72;;;18.59;100.00
58245;BME280;44550;43.864;25.986;2023-08-08T06:42:03;101138.50;;;18.55;100.00
58245;BME280;44550;43.864;25.986;2023-08-08T06:51:03;101089.50;;;18.35;100.00
58245;BME280;44550;43.864;25.986;2023-08-08T07:06:51;101115.00;;;18.39;100.00
58245;BME280;44550;43.864;25.986;2023-08-08T07:10:51;101119.72;;;18.23;100.00
58245;BME280;44550;43.864;25.986;2023-08-08T07:14:56;101112.75;;;18.19;100.00
58245;BME280;44550;43.864;25.986;2023-08-08T07:18:55;101104.56;;;18.31;100.00
58245;BME280;44550;43.864;25.986;2023-08-08T07:22:57;101100.97;;;18.34;100.00
58245;BME280;44550;43.864;25.986;2023-08-08T07:26:59;101116.94;;;18.29;100.00
58245;BME280;44550;43.864;25.986;2023-08-08T07:31:17;101115.28;;;18.23;100.00
58245;BME280;44550;43.864;25.986;2023-08-08T07:35:17;101090.50;;;18.27;100.00
58245;BME280;44550;43.864;25.986;2023-08-08T07:39:19;101133.09;;;18.60;100.00
58245;BME280;44550;43.864;25.986;2023-08-08T07:43:20;101144.44;;;18.67;100.00
58245;BME280;44550;43.864;25.986;2023-08-08T07:47:20;101135.97;;;18.94;100.00
58245;BME280;44550;43.864;25.986;2023-08-08T07:51:20;101140.06;;;19.09;100.00
58245;BME280;44550;43.864;25.986;2023-08-08T07:55:22;101143.06;;;18.92;100.00
58245;BME280;44550;43.864;25.986;2023-08-08T07:59:22;101107.84;;;18.87;100.00
58245;BME280;44550;43.864;25.986;2023-08-08T08:03:22;101139.19;;;19.09;100.00
58245;BME280;44550;43.864;25.986;2023-08-08T08:07:22;101139.22;;;19.07;100.00
58245;BME280;44550;43.864;25.986;2023-08-08T08:11:25;101134.94;;;19.01;100.00
58245;BME280;44550;43.864;25.986;2023-08-08T08:15:25;101127.75;;;19.07;100.00
58245;BME280;44550;43.864;25.986;2023-08-08T08:19:25;101135.50;;;19.16;100.00
58245;BME280;44550;43.864;25.986;2023-08-08T08:23:26;101121.03;;;19.29;98.69
58245;BME280;44550;43.864;25.986;2023-08-08T08:27:32;101118.66;;;19.56;97.71
58245;BME280;44550;43.864;25.986;2023-08-08T08:31:32;101123.66;;;19.69;95.98
58245;BME280;44550;43.864;25.986;2023-08-08T08:35:34;101111.09;;;19.76;94.35
58245;BME280;44550;43.864;25.986;2023-08-08T08:39:35;101121.34;;;19.91;96.60
58245;BME280;44550;43.864;25.986;2023-08-08T08:43:40;101092.09;;;20.26;95.09
58245;BME280;44550;43.864;25.986;2023-08-08T08:47:41;101107.25;;;20.84;92.73
58245;BME280;44550;43.864;25.986;2023-08-08T08:51:47;101076.50;;;20.76;88.25
58245;BME280;44550;43.864;25.986;2023-08-08T08:55:47;101084.03;;;20.91;89.38
58245;BME280;44550;43.864;25.986;2023-08-08T08:59:49;101115.56;;;21.31;89.03
58245;BME280;44550;43.864;25.986;2023-08-08T09:03:50;101113.25;;;21.49;86.07
58245;BME280;44550;43.864;25.986;2023-08-08T09:07:50;101111.03;;;21.63;85.61
58245;BME280;44550;43.864;25.986;2023-08-08T09:11:53;101108.72;;;22.05;81.53
58245;BME280;44550;43.864;25.986;2023-08-08T09:15:56;101110.75;;;21.97;81.14
58245;BME280;44550;43.864;25.986;2023-08-08T09:19:56;101082.88;;;22.08;81.76
58245;BME280;44550;43.864;25.986;2023-08-08T09:23:58;101092.34;;;22.41;79.60
58245;BME280;44550;43.864;25.986;2023-08-08T09:27:58;101101.13;;;22.68;77.46
58245;BME280;44550;43.864;25.986;2023-08-08T09:32:02;101106.38;;;22.70;79.05
58245;BME280;44550;43.864;25.986;2023-08-08T09:36:02;101100.06;;;22.49;78.12
58245;BME280;44550;43.864;25.986;2023-08-08T09:40:04;101091.25;;;22.47;78.52
58245;BME280;44550;43.864;25.986;2023-08-08T09:44:08;101087.16;;;22.85;77.98
58245;BME280;44550;43.864;25.986;2023-08-08T09:48:10;101090.69;;;22.86;74.77
58245;BME280;44550;43.864;25.986;2023-08-08T09:52:10;101085.16;;;23.14;74.09
58245;BME280;44550;43.864;25.986;2023-08-08T09:56:11;101091.91;;;23.01;72.56
58245;BME280;44550;43.864;25.986;2023-08-08T10:00:12;101083.28;;;23.16;72.33
58245;BME280;44550;43.864;25.986;2023-08-08T10:04:20;101079.31;;;23.26;72.83
58245;BME280;44550;43.864;25.986;2023-08-08T10:08:22;101086.31;;;23.73;66.64
58245;BME280;44550;43.864;25.986;2023-08-08T10:12:22;101102.22;;;23.76;64.05
58245;BME280;44550;43.864;25.986;2023-08-08T10:16:23;101089.56;;;23.59;63.84
58245;BME280;44550;43.864;25.986;2023-08-08T10:20:27;101094.09;;;23.79;61.41
58245;BME280;44550;43.864;25.986;2023-08-08T10:24:33;101091.06;;;24.07;59.88
58245;BME280;44550;43.864;25.986;2023-08-08T10:28:34;101092.34;;;24.19;59.44
58245;BME280;44550;43.864;25.986;2023-08-08T10:32:41;101087.09;;;24.36;59.60
58245;BME280;44550;43.864;25.986;2023-08-08T10:36:49;101067.06;;;24.46;59.05
58245;BME280;44550;43.864;25.986;2023-08-08T10:40:55;101044.63;;;24.50;56.55
58245;BME280;44550;43.864;25.986;2023-08-08T10:44:57;101072.44;;;24.65;56.52
58245;BME280;44550;43.864;25.986;2023-08-08T10:48:58;101057.69;;;24.56;54.53
58245;BME280;44550;43.864;25.986;2023-08-08T10:53:02;101056.41;;;24.65;53.05
58245;BME280;44550;43.864;25.986;2023-08-08T10:57:04;101057.94;;;24.71;52.24
58245;BME280;44550;43.864;25.986;2023-08-08T11:01:16;101062.41;;;24.89;50.96
58245;BME280;44550;43.864;25.986;2023-08-08T11:05:18;101055.19;;;24.91;48.93
58245;BME280;44550;43.864;25.986;2023-08-08T11:09:20;101058.41;;;24.98;48.73
58245;BME280;44550;43.864;25.986;2023-08-08T11:13:20;101056.31;;;25.04;49.71
58245;BME280;44550;43.864;25.986;2023-08-08T11:17:20;101063.19;;;24.91;49.75
58245;BME280;44550;43.864;25.986;2023-08-08T11:21:20;101063.69;;;24.99;47.21
58245;BME280;44550;43.864;25.986;2023-08-08T11:25:26;101060.53;;;25.46;46.50
58245;BME280;44550;43.864;25.986;2023-08-08T11:29:26;101056.28;;;25.77;43.07
58245;BME280;44550;43.864;25.986;2023-08-08T11:33:28;101059.78;;;25.96;42.15
58245;BME280;44550;43.864;25.986;2023-08-08T11:37:28;101059.53;;;26.01;41.50
58245;BME280;44550;43.864;25.986;2023-08-08T11:41:30;101060.84;;;26.27;39.84
58245;BME280;44550;43.864;25.986;2023-08-08T11:45:31;101038.00;;;26.20;39.91
58245;BME280;44550;43.864;25.986;2023-08-08T11:49:41;101056.06;;;26.16;41.41
58245;BME280;44550;43.864;25.986;2023-08-08T11:53:48;101048.56;;;26.23;40.13
58245;BME280;44550;43.864;25.986;2023-08-08T11:57:51;101040.09;;;26.31;40.58
58245;BME280;44550;43.864;25.986;2023-08-08T12:02:02;101025.22;;;26.41;40.46
58245;BME280;44550;43.864;25.986;2023-08-08T12:06:11;101034.97;;;26.59;41.01
58245;BME280;44550;43.864;25.986;2023-08-08T12:10:17;101039.91;;;26.99;41.20
58245;BME280;44550;43.864;25.986;2023-08-08T12:14:19;101029.34;;;27.27;39.19
58245;BME280;44550;43.864;25.986;2023-08-08T12:18:19;101019.81;;;27.22;39.82
58245;BME280;44550;43.864;25.986;2023-08-08T12:22:21;100998.72;;;27.46;38.13
58245;BME280;44550;43.864;25.986;2023-08-08T12:26:21;101021.75;;;27.50;37.72
58245;BME280;44550;43.864;25.986;2023-08-08T12:30:24;101029.75;;;28.10;37.69
58245;BME280;44550;43.864;25.986;2023-08-08T12:34:24;101021.41;;;28.29;37.89
58245;BME280;44550;43.864;25.986;2023-08-08T12:38:24;101036.88;;;28.25;43.90
58245;BME280;44550;43.864;25.986;2023-08-08T12:42:24;101038.00;;;28.07;46.22
58245;BME280;44550;43.864;25.986;2023-08-08T12:46:26;101032.81;;;26.98;49.20
58245;BME280;44550;43.864;25.986;2023-08-08T12:50:26;101006.06;;;26.15;52.89
58245;BME280;44550;43.864;25.986;2023-08-08T12:54:26;101038.31;;;25.62;56.12
58245;BME280;44550;43.864;25.986;2023-08-08T12:58:25;101027.84;;;24.84;59.92
58245;BME280;44550;43.864;25.986;2023-08-08T13:02:28;101036.75;;;24.85;62.06
58245;BME280;44550;43.864;25.986;2023-08-08T13:06:28;101015.38;;;25.02;60.87
58245;BME280;44550;43.864;25.986;2023-08-08T13:10:28;101028.63;;;24.87;63.17
58245;BME280;44550;43.864;25.986;2023-08-08T13:14:29;101025.47;;;24.97;61.79
58245;BME280;44550;43.864;25.986;2023-08-08T13:18:30;101014.72;;;25.16;59.98
58245;BME280;44550;43.864;25.986;2023-08-08T13:22:33;101014.91;;;25.65;56.12
58245;BME280;44550;43.864;25.986;2023-08-08T13:26:35;101017.56;;;25.84;54.36
58245;BME280;44550;43.864;25.986;2023-08-08T13:30:40;101019.72;;;25.76;55.67
58245;BME280;44550;43.864;25.986;2023-08-08T13:35:09;101020.59;;;25.76;55.04
58245;BME280;44550;43.864;25.986;2023-08-08T13:39:26;101026.59;;;25.82;53.50
58245;BME280;44550;43.864;25.986;2023-08-08T13:43:40;101027.41;;;25.84;53.07
58245;BME280;44550;43.864;25.986;2023-08-08T13:47:44;101033.28;;;26.08;52.50
58245;BME280;44550;43.864;25.986;2023-08-08T13:52:03;101036.88;;;26.24;52.55
58245;BME280;44550;43.864;25.986;2023-08-08T13:56:35;101036.59;;;26.13;51.86
58245;BME280;44550;43.864;25.986;2023-08-08T14:24:36;101035.53;;;27.13;48.00
58245;BME280;44550;43.864;25.986;2023-08-08T14:28:37;101037.56;;;27.08;47.66
58245;BME280;44550;43.864;25.986;2023-08-08T14:32:40;101041.75;;;27.14;47.25
58245;BME280;44550;43.864;25.986;2023-08-08T14:36:45;101024.84;;;27.28;45.95
58245;BME280;44550;43.864;25.986;2023-08-08T14:40:48;101029.69;;;27.21;45.38
58245;BME280;44550;43.864;25.986;2023-08-08T14:44:54;101034.84;;;27.70;44.26
58245;BME280;44550;43.864;25.986;2023-08-08T14:49:13;101039.53;;;27.82;42.28
58245;BME280;44550;43.864;25.986;2023-08-08T14:53:19;101041.19;;;27.99;41.43
58245;BME280;44550;43.864;25.986;2023-08-08T14:57:23;101034.81;;;27.56;43.33
58245;BME280;44550;43.864;25.986;2023-08-08T15:01:24;101028.94;;;27.49;42.79
58245;BME280;44550;43.864;25.986;2023-08-08T15:05:25;101040.56;;;27.50;41.96
58245;BME280;44550;43.864;25.986;2023-08-08T15:09:27;101016.06;;;27.40;43.25
58245;BME280;44550;43.864;25.986;2023-08-08T15:13:31;101021.16;;;27.45;41.80
58245;BME280;44550;43.864;25.986;2023-08-08T15:17:32;101028.09;;;27.49;42.76
58245;BME280;44550;43.864;25.986;2023-08-08T15:21:33;101026.34;;;27.48;42.10
58245;BME280;44550;43.864;25.986;2023-08-08T15:25:37;101023.09;;;27.43;43.45
58245;BME280;44550;43.864;25.986;2023-08-08T15:29:45;101028.19;;;27.61;42.86
58245;BME280;44550;43.864;25.986;2023-08-08T15:33:46;101020.97;;;27.48;43.08
58245;BME280;44550;43.864;25.986;2023-08-08T15:37:47;101025.41;;;27.79;41.26
58245;BME280;44550;43.864;25.986;2023-08-08T15:42:06;100998.38;;;27.52;42.18
58245;BME280;44550;43.864;25.986;2023-08-08T15:46:09;101033.31;;;27.66;43.83
58245;BME280;44550;43.864;25.986;2023-08-08T15:50:11;101029.44;;;27.56;43.16
58245;BME280;44550;43.864;25.986;2023-08-08T15:54:20;101038.19;;;27.13;43.48
58245;BME280;44550;43.864;25.986;2023-08-08T15:58:24;101040.88;;;27.29;43.19
58245;BME280;44550;43.864;25.986;2023-08-08T16:02:27;101027.13;;;27.20;44.36
58245;BME280;44550;43.864;25.986;2023-08-08T16:06:30;101032.47;;;27.20;44.08
58245;BME280;44550;43.864;25.986;2023-08-08T16:10:31;101044.75;;;26.60;44.81
58245;BME280;44550;43.864;25.986;2023-08-08T16:14:32;101052.94;;;26.24;45.63
58245;BME280;44550;43.864;25.986;2023-08-08T16:18:34;101053.53;;;25.96;46.73
58245;BME280;44550;43.864;25.986;2023-08-08T16:22:34;101067.72;;;25.98;48.22
58245;BME280;44550;43.864;25.986;2023-08-08T16:26:34;101057.75;;;25.84;49.97
58245;BME280;44550;43.864;25.986;2023-08-08T16:30:35;101062.03;;;25.69;50.55
58245;BME280;44550;43.864;25.986;2023-08-08T16:34:37;101069.34;;;25.66;51.15
58245;BME280;44550;43.864;25.986;2023-08-08T16:38:40;101047.50;;;25.21;52.27
58245;BME280;44550;43.864;25.986;2023-08-08T16:42:41;101080.25;;;25.07;52.99
